This is the latest recevied weather packets stored in our database for station/object KA1BMF-13. If no packets are shown the sender has not sent any weather packets the latest 10 day(s).
| Time | Temp. | Humidity | Pressure | Rain* | Wind** | Luminosity | Snow |
|---|---|---|---|---|---|---|---|
| 1777955722 | 9.44° C | 85% | 1010.9 hPa | 0 mm | - | 0 W/m² | - |
| 1777955121 | 9.44° C | 84% | 1010.9 hPa | 0 mm | - | 0 W/m² | - |
| 1777954518 | 10° C | 84% | 1010.9 hPa | 0 mm | - | 0 W/m² | - |
| 1777949720 | 11.11° C | 79% | 1010.8 hPa | 0 mm | - | 0 W/m² | - |
| 1777947920 | 11.67° C | 76% | 1010.9 hPa | 0 mm | - | 0 W/m² | - |
| 1777947321 | 12.22° C | 75% | 1010.9 hPa | 0 mm | - | 0 W/m² | - |
| 1777943119 | 13.33° C | 69% | 1010.5 hPa | 0 mm | - | 0 W/m² | - |
| 1777935918 | 16.11° C | 57% | 1009 hPa | 0 mm | - | 28 W/m² | - |
| 1777932919 | 17.22° C | 53% | 1009 hPa | 0 mm | - | 47 W/m² | - |
| 1777932319 | 17.78° C | 52% | 1009.1 hPa | 0 mm | - | 51 W/m² | - |
| 1777931120 | 18.33° C | 50% | 1008.9 hPa | 0 mm | - | 71 W/m² | - |
| 1777929320 | 18.89° C | 47% | 1008.8 hPa | 0 mm | - | 70 W/m² | - |
| 1777926921 | 18.89° C | 46% | 1008.8 hPa | 0 mm | - | 85 W/m² | - |
| 1777926321 | 18.89° C | 45% | 1008.8 hPa | 0 mm | - | 165 W/m² | - |
| 1777925118 | 19.44° C | 45% | 1008.7 hPa | 0 mm | - | 569 W/m² | - |
| 1777923319 | 19.44° C | 42% | 1008.8 hPa | 0 mm | - | 664 W/m² | - |
| 1777921519 | 20° C | 41% | 1008.9 hPa | 0 mm | - | 709 W/m² | - |
| 1777916718 | 19.44° C | 38% | 1009.7 hPa | 0 mm | - | 894 W/m² | - |
| 1777915538 | 19.44° C | 39% | 1009.7 hPa | 0 mm | - | 911 W/m² | - |
| 1777910740 | 18.33° C | 37% | 1010.6 hPa | 0 mm | - | 922 W/m² | - |
| 1777910117 | 18.89° C | 38% | 1010.7 hPa | 0 mm | - | 908 W/m² | - |
| 1777898720 | 13.33° C | 47% | 1012.3 hPa | 0 mm | - | 376 W/m² | - |
| 1777883718 | 4.44° C | 79% | 1011.6 hPa | 0 mm | - | 0 W/m² | - |
| 1777880120 | 4.44° C | 76% | 1011.6 hPa | 0 mm | - | 0 W/m² | - |
| 1777879520 | 5° C | 76% | 1011.5 hPa | 0 mm | - | 0 W/m² | - |
* Rain latest hour (hover to see other rain measurements)
** Current wind speed in m/s (hover to see current wind gust speed)